Norse Mersey — IBEN — position and weather

sailwx.info

Track history (hours):
 
Tides and Currents Weather Stations Pressure Air Temp Water Temp Dewpoint Dewpoint Depression Visibility Wind Speed Wind Dir Waves Ship Positions

Norse Mersey

Operator: Norse Merchant Ferries

Last reported at 2017-Jun-23 18:30 UTC. Time now 2017-Jun-23 18:52 UTC.
Position N 44°20' E 008°58'.

Length 175 m; draft 5.6 m.

Type: Ship (hazmat cat A). MMSI: 247026000.

Date/timePositionNaut miles runAvg speedWind from/ knotsBaromVisibWave heightAir tempDewpointWater temp
2017-Jun-23 18:30N 44°20' E 008°58'4 8.8
2017-Jun-23 18:00N 44°24' E 008°54'0 0.9
2017-Jun-23 17:26N 44°24' E 008°53'0 0.0
2017-Jun-23 16:56N 44°24' E 008°53'0 0.0
2017-Jun-23 16:29N 44°24' E 008°53'0 0.0
2017-Jun-23 15:59N 44°24' E 008°53'0 0.0
2017-Jun-23 15:29N 44°24' E 008°53'0 0.0
2017-Jun-23 14:59N 44°24' E 008°53'0 0.0
2017-Jun-23 13:59N 44°24' E 008°53'0 0.0
2017-Jun-23 13:29N 44°24' E 008°53'0 0.0
2017-Jun-23 12:59N 44°24' E 008°53'0 0.0
2017-Jun-23 12:29N 44°24' E 008°53'0 0.0
2017-Jun-23 11:59N 44°24' E 008°53'0 0.0
2017-Jun-23 11:29N 44°24' E 008°53'0 0.0
2017-Jun-23 10:59N 44°24' E 008°53'0 0.0
2017-Jun-23 10:29N 44°24' E 008°53'0 0.0
2017-Jun-23 09:59N 44°24' E 008°53'0 0.0
2017-Jun-23 09:26N 44°24' E 008°53'0 0.0
2017-Jun-23 08:50N 44°24' E 008°53'0 0.0
2017-Jun-23 08:26N 44°24' E 008°53'0 0.0
2017-Jun-23 07:53N 44°24' E 008°53'0 0.0
2017-Jun-23 07:23N 44°24' E 008°53'0 0.0
2017-Jun-23 06:59N 44°24' E 008°53'0 0.0
2017-Jun-23 06:26N 44°24' E 008°53'0 0.0
2017-Jun-23 05:53N 44°24' E 008°53'0 0.0
2017-Jun-23 05:23N 44°24' E 008°53'0 0.0
2017-Jun-23 04:56N 44°24' E 008°53'0 0.0
2017-Jun-23 04:26N 44°24' E 008°53'0 0.0
2017-Jun-23 03:56N 44°24' E 008°53'1 1.3
2017-Jun-23 03:30N 44°24' E 008°54'3 6.8
2017-Jun-23 03:00N 44°22' E 008°58'612.5
2017-Jun-23 02:30N 44°16' E 008°59'714.6
2017-Jun-23 02:00N 44°09' E 008°59'714.6
2017-Jun-23 01:30N 44°01' E 008°59'714.6
2017-Jun-23 01:00N 43°54' E 008°59'714.6
2017-Jun-23 00:30N 43°47' E 008°59'714.7
2017-Jun-23 00:00N 43°39' E 008°59'714.9
2017-Jun-22 23:30N 43°32' E 008°59'914.7
2017-Jun-22 22:55N 43°23' E 008°59'3514.2
2017-Jun-22 20:26N 42°50' E 008°43'614.7
2017-Jun-22 20:00N 42°45' E 008°38'914.8
2017-Jun-22 19:24N 42°37' E 008°32'614.3
2017-Jun-22 19:00N 42°32' E 008°28'1314.7
2017-Jun-22 18:09N 42°20' E 008°27'214.6
2017-Jun-22 18:00N 42°18' E 008°27'208 9.9
2017-Jun-21 21:02N 38°50' E 008°46'116.1
2017-Jun-21 20:57N 38°50' E 008°48'715.1
2017-Jun-21 20:30N 38°52' E 008°56'816.0
2017-Jun-21 20:00N 38°58' E 009°03'815.4
2017-Jun-21 19:30N 39°04' E 009°09'713.3
2017-Jun-21 19:00N 39°10' E 009°07'2 4.6
2017-Jun-21 18:30N 39°13' E 009°06'0 0.0
2017-Jun-21 18:00N 39°13' E 009°06'0 0.0
2017-Jun-21 17:30N 39°13' E 009°06'0 0.0
2017-Jun-21 17:00N 39°13' E 009°06'0 0.0
2017-Jun-21 16:30N 39°13' E 009°06'0 0.0
2017-Jun-21 16:00N 39°13' E 009°06'0 0.0
2017-Jun-21 15:30N 39°13' E 009°06'0 0.0
2017-Jun-21 15:00N 39°13' E 009°06'0 0.0
2017-Jun-21 14:00N 39°13' E 009°06'0 0.0
2017-Jun-21 13:30N 39°13' E 009°06'0 0.0
2017-Jun-21 13:00N 39°13' E 009°06'0 0.0
2017-Jun-21 12:30N 39°13' E 009°06'0 0.0
2017-Jun-21 12:00N 39°13' E 009°06'0 0.0
2017-Jun-21 11:30N 39°13' E 009°06'0 0.0
2017-Jun-21 11:00N 39°13' E 009°06'0 0.0
2017-Jun-21 10:30N 39°13' E 009°06'0 0.0
2017-Jun-21 10:00N 39°13' E 009°06'0 0.0
2017-Jun-21 09:30N 39°13' E 009°06'0 0.0
2017-Jun-21 09:00N 39°13' E 009°06'0 0.0
2017-Jun-21 08:30N 39°13' E 009°06'0 0.0
2017-Jun-21 08:00N 39°13' E 009°06'0 0.0
2017-Jun-21 07:30N 39°13' E 009°06'0 0.0
2017-Jun-21 07:00N 39°13' E 009°06'0 0.6
2017-Jun-21 06:29N 39°12' E 009°06'4 7.6
2017-Jun-21 06:00N 39°09' E 009°09'715.0
2017-Jun-21 05:30N 39°02' E 009°08'815.4
2017-Jun-21 04:59N 38°56' E 009°01'715.3
2017-Jun-21 04:30N 38°51' E 008°54'9313.0
2017-Jun-20 21:20N 40°16' E 008°02'2416.6
2017-Jun-20 19:51N 40°40' E 008°03'616.6
2017-Jun-20 19:29N 40°46' E 008°05'916.3
2017-Jun-20 18:55N 40°55' E 008°07'816.3
2017-Jun-20 18:27N 41°03' E 008°09'816.4
2017-Jun-20 17:58N 41°09' E 008°15'713.9
2017-Jun-20 17:28N 41°08' E 008°24'715.2
2017-Jun-20 16:59N 41°01' E 008°25'915.3
2017-Jun-20 16:22N 40°51' E 008°24'0 0.2
2017-Jun-20 14:16N 40°51' E 008°24'1914.4
2017-Jun-20 12:58N 41°10' E 008°27'715.8
2017-Jun-20 12:30N 41°17' E 008°28'815.9
2017-Jun-20 12:01N 41°25' E 008°28'915.7
2017-Jun-20 11:25N 41°34' E 008°28'615.6
2017-Jun-20 11:01N 41°40' E 008°27'7315.4
2017-Jun-20 06:15N 42°54' E 008°34'415.3
2017-Jun-20 06:00N 42°57' E 008°35'1615.4
2017-Jun-20 04:57N 43°13' E 008°40'915.6
2017-Jun-20 04:20N 43°23' E 008°42'515.5
2017-Jun-20 04:01N 43°28' E 008°43'815.5
2017-Jun-20 03:31N 43°35' E 008°45'815.6
2017-Jun-20 03:01N 43°43' E 008°47'815.7
2017-Jun-20 02:31N 43°51' E 008°50'815.8
2017-Jun-20 02:01N 43°58' E 008°52'815.7
2017-Jun-20 01:31N 44°06' E 008°54'815.5
2017-Jun-20 01:01N 44°14' E 008°56'815.6
2017-Jun-20 00:31N 44°21' E 008°57'4 7.9
2017-Jun-20 00:00N 44°24' E 008°53'0 0.3
2017-Jun-19 23:28N 44°24' E 008°53'0 0.0
2017-Jun-19 22:58N 44°24' E 008°53'0 0.0
2017-Jun-19 22:28N 44°24' E 008°53'0 0.0
2017-Jun-19 21:58N 44°24' E 008°53'0 0.0
2017-Jun-19 21:28N 44°24' E 008°53'0 0.0
2017-Jun-19 20:58N 44°24' E 008°53'1 3.0
2017-Jun-19 20:30N 44°24' E 008°55'3 6.1
2017-Jun-19 20:00N 44°22' E 008°58'3 5.5
2017-Jun-19 19:30N 44°19' E 008°59'3 6.7
2017-Jun-19 19:00N 44°17' E 008°56'0 0.1
2017-Jun-19 18:30N 44°17' E 008°56'0 0.1
2017-Jun-19 18:00N 44°17' E 008°55'0 0.1
2017-Jun-19 17:30N 44°17' E 008°55'0 0.0
2017-Jun-19 17:00N 44°17' E 008°55'0 0.8
2017-Jun-19 16:30N 44°17' E 008°55'4 8.7
2017-Jun-19 16:01N 44°21' E 008°57'4 7.4
2017-Jun-19 15:30N 44°24' E 008°54'1 1.5
2017-Jun-19 14:59N 44°24' E 008°53'0 0.0
2017-Jun-19 13:56N 44°24' E 008°53'0 0.0
2017-Jun-19 13:26N 44°24' E 008°53'0 0.0
2017-Jun-19 12:50N 44°24' E 008°53'0 0.0
2017-Jun-19 12:23N 44°24' E 008°53'0 0.4
2017-Jun-19 12:00N 44°24' E 008°53'2 4.4
2017-Jun-19 11:30N 44°24' E 008°56'4 7.7
2017-Jun-19 11:00N 44°21' E 008°60'1 2.0
2017-Jun-19 10:30N 44°20' E 008°59'4 8.2
2017-Jun-19 10:00N 44°16' E 009°01'714.1
2017-Jun-19 09:31N 44°09' E 009°04'815.1
2017-Jun-19 09:01N 44°02' E 009°08'815.3
2017-Jun-19 08:30N 43°55' E 009°12'815.8
2017-Jun-19 08:00N 43°48' E 009°16'816.2
2017-Jun-19 07:30N 43°40' E 009°19'816.3
2017-Jun-19 07:01N 43°32' E 009°23'816.3
2017-Jun-19 06:31N 43°25' E 009°27'816.3
2017-Jun-19 06:00N 43°17' E 009°31'816.2
2017-Jun-19 05:31N 43°09' E 009°34'25015.4
2017-Jun-18 13:14N 38°59' E 009°33'514.2
2017-Jun-18 12:55N 39°01' E 009°27'615.0
2017-Jun-18 12:30N 39°04' E 009°20'815.1
2017-Jun-18 12:00N 39°08' E 009°12'611.9
2017-Jun-18 11:29N 39°12' E 009°07'1 1.3
2017-Jun-18 10:58N 39°13' E 009°06'0 0.0
2017-Jun-18 10:28N 39°13' E 009°06'0 0.0
2017-Jun-18 09:58N 39°13' E 009°06'0 0.0
2017-Jun-18 09:28N 39°13' E 009°06'0 0.0
2017-Jun-18 08:58N 39°13' E 009°06'0 0.0
2017-Jun-18 08:28N 39°13' E 009°06'0 0.0
2017-Jun-18 07:58N 39°13' E 009°06'0 0.0
2017-Jun-18 07:28N 39°13' E 009°06'0 0.0
2017-Jun-18 06:58N 39°13' E 009°06'0 0.0
2017-Jun-18 06:28N 39°13' E 009°06'0 0.0
2017-Jun-18 05:58N 39°13' E 009°06'0 0.0
2017-Jun-18 05:28N 39°13' E 009°06'0 0.0
2017-Jun-18 04:58N 39°13' E 009°06'0 0.0
2017-Jun-18 04:28N 39°13' E 009°06'0 0.3
2017-Jun-18 03:58N 39°13' E 009°06'2 4.9
2017-Jun-18 03:30N 39°10' E 009°07'714.4
2017-Jun-18 03:00N 39°03' E 009°09'714.7
2017-Jun-18 02:30N 38°58' E 009°03'815.3
2017-Jun-18 02:00N 38°52' E 008°56'14012.7
2017-Jun-17 14:59N 41°09' E 008°15'712.7
2017-Jun-17 14:27N 41°08' E 008°24'122 9.6
2017-Jun-17 01:44N 43°10' E 008°38'415.7
2017-Jun-17 01:29N 43°14' E 008°39'715.7
2017-Jun-17 01:00N 43°21' E 008°41'815.6
2017-Jun-17 00:30N 43°29' E 008°43'815.4
2017-Jun-17 00:00N 43°36' E 008°46'815.3
2017-Jun-16 23:30N 43°44' E 008°49'815.3
2017-Jun-16 23:00N 43°51' E 008°51'815.5
2017-Jun-16 22:30N 43°59' E 008°52'815.7
2017-Jun-16 22:00N 44°06' E 008°54'815.7
2017-Jun-16 21:30N 44°14' E 008°56'815.4
2017-Jun-16 21:00N 44°22' E 008°57'4 7.3
2017-Jun-16 20:30N 44°24' E 008°53'0 0.2
2017-Jun-16 19:57N 44°24' E 008°53'0 0.0
2017-Jun-16 19:27N 44°24' E 008°53'0 0.0
2017-Jun-16 19:00N 44°24' E 008°53'0 0.0
2017-Jun-16 18:27N 44°24' E 008°53'0 0.0
2017-Jun-16 17:57N 44°24' E 008°53'0 0.0
2017-Jun-16 17:27N 44°24' E 008°53'0 0.0
2017-Jun-16 16:57N 44°24' E 008°53'0 0.0
2017-Jun-16 16:27N 44°24' E 008°53'0 0.0
2017-Jun-16 16:00N 44°24' E 008°53'0 0.0
2017-Jun-16 15:30N 44°24' E 008°53'0 0.0
2017-Jun-16 15:00N 44°24' E 008°53'0 0.0
2017-Jun-16 14:30N 44°24' E 008°53'0 0.0
2017-Jun-16 13:30N 44°24' E 008°53'0 0.0
2017-Jun-16 13:00N 44°24' E 008°53'0 0.0
2017-Jun-16 12:30N 44°24' E 008°53'0 0.0
2017-Jun-16 12:00N 44°24' E 008°53'0 0.0
2017-Jun-16 11:30N 44°24' E 008°53'0 0.0
2017-Jun-16 11:00N 44°24' E 008°53'0 0.0
2017-Jun-16 10:30N 44°24' E 008°53'0 0.0
2017-Jun-16 10:00N 44°24' E 008°53'0 0.0
2017-Jun-16 09:30N 44°24' E 008°53'0 0.0
2017-Jun-16 08:54N 44°24' E 008°53'0 0.3
2017-Jun-16 08:30N 44°24' E 008°53'3 5.0
2017-Jun-16 08:00N 44°23' E 008°57'5 9.5
2017-Jun-16 07:30N 44°19' E 008°59'714.3
2017-Jun-16 07:00N 44°12' E 008°57'714.3
2017-Jun-16 06:30N 44°05' E 008°55'714.3
2017-Jun-16 06:00N 43°58' E 008°53'714.8
2017-Jun-16 05:30N 43°50' E 008°51'815.4
2017-Jun-16 05:00N 43°43' E 008°49'815.4
2017-Jun-16 04:30N 43°36' E 008°46'815.3
2017-Jun-16 04:00N 43°28' E 008°44'6715.7
2017-Jun-15 23:45N 42°22' E 008°26'516.0
2017-Jun-15 23:25N 42°17' E 008°26'1015.9
2017-Jun-15 22:48N 42°07' E 008°26'715.8
2017-Jun-15 22:23N 42°01' E 008°26'715.9
2017-Jun-15 21:58N 41°54' E 008°27'915.8
2017-Jun-15 21:24N 41°45' E 008°27'615.7
2017-Jun-15 21:00N 41°39' E 008°27'815.7
2017-Jun-15 20:30N 41°31' E 008°27'915.4
2017-Jun-15 19:55N 41°22' E 008°27'715.2
2017-Jun-15 19:27N 41°15' E 008°27'715.1
2017-Jun-15 18:59N 41°08' E 008°27'815.2
2017-Jun-15 18:28N 41°00' E 008°26'715.2
2017-Jun-15 18:00N 40°53' E 008°25'2 0.2
2017-Jun-15 07:36N 40°51' E 008°23'1 8.2
2017-Jun-15 07:30N 40°52' E 008°24'914.8
2017-Jun-15 06:53N 41°01' E 008°26'615.8
2017-Jun-15 06:30N 41°07' E 008°28'816.0
2017-Jun-15 05:59N 41°15' E 008°27'915.8
2017-Jun-15 05:26N 41°24' E 008°27'715.5
2017-Jun-15 04:58N 41°31' E 008°27'715.4
2017-Jun-15 04:29N 41°38' E 008°27'815.4
2017-Jun-15 03:59N 41°46' E 008°26'815.4
2017-Jun-15 03:29N 41°54' E 008°26'1315.5
2017-Jun-15 02:37N 42°07' E 008°26'215.5
2017-Jun-15 02:30N 42°09' E 008°26'815.4
2017-Jun-15 02:00N 42°16' E 008°26'815.4
2017-Jun-15 01:30N 42°24' E 008°26'1215.3
2017-Jun-15 00:41N 42°37' E 008°26'315.2
2017-Jun-15 00:29N 42°40' E 008°26'715.5
2017-Jun-15 00:00N 42°47' E 008°27'815.5
2017-Jun-14 23:30N 42°55' E 008°27'3815.8
2017-Jun-14 21:04N 43°33' E 008°29'815.5
2017-Jun-14 20:34N 43°41' E 008°29'215.5
2017-Jun-14 20:27N 43°43' E 008°29'715.6
2017-Jun-14 20:00N 43°50' E 008°29'915.7
2017-Jun-14 19:28N 43°58' E 008°30'715.8
2017-Jun-14 19:00N 44°05' E 008°31'815.7
2017-Jun-14 18:30N 44°13' E 008°31'611.1
2017-Jun-14 18:00N 44°19' E 008°30'0 0.6
2017-Jun-14 17:30N 44°19' E 008°29'0 0.0
2017-Jun-14 17:00N 44°19' E 008°29'0 0.0
2017-Jun-14 16:30N 44°19' E 008°29'0 0.0
2017-Jun-14 16:00N 44°19' E 008°29'0 0.0
2017-Jun-14 15:30N 44°19' E 008°29'0 0.0
2017-Jun-14 15:00N 44°19' E 008°29'0 0.0
2017-Jun-14 14:00N 44°19' E 008°29'0 0.0
2017-Jun-14 13:30N 44°19' E 008°29'0 0.0
2017-Jun-14 13:00N 44°19' E 008°29'0 0.0
2017-Jun-14 12:30N 44°19' E 008°29'0 0.0
2017-Jun-14 12:00N 44°19' E 008°29'0 0.0
2017-Jun-14 11:30N 44°19' E 008°29'0 0.0
2017-Jun-14 11:00N 44°19' E 008°29'0 0.0
2017-Jun-14 10:30N 44°19' E 008°29'0 0.0
2017-Jun-14 10:00N 44°19' E 008°29'0 0.0
2017-Jun-14 09:30N 44°19' E 008°29'0 0.0
2017-Jun-14 09:00N 44°19' E 008°29'0 0.0
2017-Jun-14 08:24N 44°19' E 008°29'0 0.1
2017-Jun-14 08:00N 44°19' E 008°29'1 2.5
2017-Jun-14 07:30N 44°18' E 008°31'714.3
2017-Jun-14 07:00N 44°11' E 008°31'815.7
2017-Jun-14 06:30N 44°03' E 008°31'815.6
2017-Jun-14 06:00N 43°55' E 008°30'815.6
2017-Jun-14 05:30N 43°48' E 008°30'815.7
2017-Jun-14 05:00N 43°40' E 008°29'815.7
2017-Jun-14 04:30N 43°32' E 008°29'815.6
2017-Jun-14 04:00N 43°24' E 008°28'815.5
2017-Jun-14 03:28N 43°16' E 008°28'715.4
2017-Jun-14 02:59N 43°08' E 008°28'1715.7
2017-Jun-14 01:53N 42°51' E 008°26'815.8
2017-Jun-14 01:24N 42°43' E 008°26'616.1
2017-Jun-14 01:00N 42°37' E 008°25'816.2
2017-Jun-14 00:30N 42°29' E 008°25'915.8
2017-Jun-13 23:55N 42°20' E 008°27'815.9
2017-Jun-13 23:27N 42°12' E 008°27'815.6
2017-Jun-13 22:57N 42°04' E 008°27'715.6
2017-Jun-13 22:30N 41°57' E 008°27'815.8
2017-Jun-13 21:59N 41°49' E 008°27'815.9
2017-Jun-13 21:30N 41°42' E 008°27'816.0
2017-Jun-13 21:00N 41°34' E 008°27'916.1
2017-Jun-13 20:26N 41°24' E 008°27'715.7
2017-Jun-13 20:01N 41°18' E 008°27'815.6
2017-Jun-13 19:30N 41°10' E 008°27'815.5
2017-Jun-13 19:00N 41°02' E 008°26'  
Track history (hours):
 
Tides and Currents Weather Stations Pressure Air Temp Water Temp Dewpoint Dewpoint Depression Visibility Wind Speed Wind Dir Waves Ship Positions

Norse Mersey

Operator: Norse Merchant Ferries

Last reported at 2017-Jun-23 18:30 UTC. Time now 2017-Jun-23 18:52 UTC.
Position N 44°20' E 008°58'.

Length 175 m; draft 5.6 m.

Type: Ship (hazmat cat A). MMSI: 247026000.

Date/timePositionNaut miles runAvg speedWind from/ knotsBaromVisibWave heightAir tempDewpointWater temp
2017-Jun-23 18:30N 44°20' E 008°58'4 8.8
2017-Jun-23 18:00N 44°24' E 008°54'0 0.9
2017-Jun-23 17:26N 44°24' E 008°53'0 0.0
2017-Jun-23 16:56N 44°24' E 008°53'0 0.0
2017-Jun-23 16:29N 44°24' E 008°53'0 0.0
2017-Jun-23 15:59N 44°24' E 008°53'0 0.0
2017-Jun-23 15:29N 44°24' E 008°53'0 0.0
2017-Jun-23 14:59N 44°24' E 008°53'0 0.0
2017-Jun-23 13:59N 44°24' E 008°53'0 0.0
2017-Jun-23 13:29N 44°24' E 008°53'0 0.0
2017-Jun-23 12:59N 44°24' E 008°53'0 0.0
2017-Jun-23 12:29N 44°24' E 008°53'0 0.0
2017-Jun-23 11:59N 44°24' E 008°53'0 0.0
2017-Jun-23 11:29N 44°24' E 008°53'0 0.0
2017-Jun-23 10:59N 44°24' E 008°53'0 0.0
2017-Jun-23 10:29N 44°24' E 008°53'0 0.0
2017-Jun-23 09:59N 44°24' E 008°53'0 0.0
2017-Jun-23 09:26N 44°24' E 008°53'0 0.0
2017-Jun-23 08:50N 44°24' E 008°53'0 0.0
2017-Jun-23 08:26N 44°24' E 008°53'0 0.0
2017-Jun-23 07:53N 44°24' E 008°53'0 0.0
2017-Jun-23 07:23N 44°24' E 008°53'0 0.0
2017-Jun-23 06:59N 44°24' E 008°53'0 0.0
2017-Jun-23 06:26N 44°24' E 008°53'0 0.0
2017-Jun-23 05:53N 44°24' E 008°53'0 0.0
2017-Jun-23 05:23N 44°24' E 008°53'0 0.0
2017-Jun-23 04:56N 44°24' E 008°53'0 0.0
2017-Jun-23 04:26N 44°24' E 008°53'0 0.0
2017-Jun-23 03:56N 44°24' E 008°53'1 1.3
2017-Jun-23 03:30N 44°24' E 008°54'3 6.8
2017-Jun-23 03:00N 44°22' E 008°58'612.5
2017-Jun-23 02:30N 44°16' E 008°59'714.6
2017-Jun-23 02:00N 44°09' E 008°59'714.6
2017-Jun-23 01:30N 44°01' E 008°59'714.6
2017-Jun-23 01:00N 43°54' E 008°59'714.6
2017-Jun-23 00:30N 43°47' E 008°59'714.7
2017-Jun-23 00:00N 43°39' E 008°59'714.9
2017-Jun-22 23:30N 43°32' E 008°59'914.7
2017-Jun-22 22:55N 43°23' E 008°59'3514.2
2017-Jun-22 20:26N 42°50' E 008°43'614.7
2017-Jun-22 20:00N 42°45' E 008°38'914.8
2017-Jun-22 19:24N 42°37' E 008°32'614.3
2017-Jun-22 19:00N 42°32' E 008°28'1314.7
2017-Jun-22 18:09N 42°20' E 008°27'214.6
2017-Jun-22 18:00N 42°18' E 008°27'208 9.9
2017-Jun-21 21:02N 38°50' E 008°46'116.1
2017-Jun-21 20:57N 38°50' E 008°48'715.1
2017-Jun-21 20:30N 38°52' E 008°56'816.0
2017-Jun-21 20:00N 38°58' E 009°03'815.4
2017-Jun-21 19:30N 39°04' E 009°09'713.3
2017-Jun-21 19:00N 39°10' E 009°07'2 4.6
2017-Jun-21 18:30N 39°13' E 009°06'0 0.0
2017-Jun-21 18:00N 39°13' E 009°06'0 0.0
2017-Jun-21 17:30N 39°13' E 009°06'0 0.0
2017-Jun-21 17:00N 39°13' E 009°06'0 0.0
2017-Jun-21 16:30N 39°13' E 009°06'0 0.0
2017-Jun-21 16:00N 39°13' E 009°06'0 0.0
2017-Jun-21 15:30N 39°13' E 009°06'0 0.0
2017-Jun-21 15:00N 39°13' E 009°06'0 0.0
2017-Jun-21 14:00N 39°13' E 009°06'0 0.0
2017-Jun-21 13:30N 39°13' E 009°06'0 0.0
2017-Jun-21 13:00N 39°13' E 009°06'0 0.0
2017-Jun-21 12:30N 39°13' E 009°06'0 0.0
2017-Jun-21 12:00N 39°13' E 009°06'0 0.0
2017-Jun-21 11:30N 39°13' E 009°06'0 0.0
2017-Jun-21 11:00N 39°13' E 009°06'0 0.0
2017-Jun-21 10:30N 39°13' E 009°06'0 0.0
2017-Jun-21 10:00N 39°13' E 009°06'0 0.0
2017-Jun-21 09:30N 39°13' E 009°06'0 0.0
2017-Jun-21 09:00N 39°13' E 009°06'0 0.0
2017-Jun-21 08:30N 39°13' E 009°06'0 0.0
2017-Jun-21 08:00N 39°13' E 009°06'0 0.0
2017-Jun-21 07:30N 39°13' E 009°06'0 0.0
2017-Jun-21 07:00N 39°13' E 009°06'0 0.6
2017-Jun-21 06:29N 39°12' E 009°06'4 7.6
2017-Jun-21 06:00N 39°09' E 009°09'715.0
2017-Jun-21 05:30N 39°02' E 009°08'815.4
2017-Jun-21 04:59N 38°56' E 009°01'715.3
2017-Jun-21 04:30N 38°51' E 008°54'9313.0
2017-Jun-20 21:20N 40°16' E 008°02'2416.6
2017-Jun-20 19:51N 40°40' E 008°03'616.6
2017-Jun-20 19:29N 40°46' E 008°05'916.3
2017-Jun-20 18:55N 40°55' E 008°07'816.3
2017-Jun-20 18:27N 41°03' E 008°09'816.4
2017-Jun-20 17:58N 41°09' E 008°15'713.9
2017-Jun-20 17:28N 41°08' E 008°24'715.2
2017-Jun-20 16:59N 41°01' E 008°25'915.3
2017-Jun-20 16:22N 40°51' E 008°24'0 0.2
2017-Jun-20 14:16N 40°51' E 008°24'1914.4
2017-Jun-20 12:58N 41°10' E 008°27'715.8
2017-Jun-20 12:30N 41°17' E 008°28'815.9
2017-Jun-20 12:01N 41°25' E 008°28'915.7
2017-Jun-20 11:25N 41°34' E 008°28'615.6
2017-Jun-20 11:01N 41°40' E 008°27'7315.4
2017-Jun-20 06:15N 42°54' E 008°34'415.3
2017-Jun-20 06:00N 42°57' E 008°35'1615.4
2017-Jun-20 04:57N 43°13' E 008°40'915.6
2017-Jun-20 04:20N 43°23' E 008°42'515.5
2017-Jun-20 04:01N 43°28' E 008°43'815.5
2017-Jun-20 03:31N 43°35' E 008°45'815.6
2017-Jun-20 03:01N 43°43' E 008°47'815.7
2017-Jun-20 02:31N 43°51' E 008°50'815.8
2017-Jun-20 02:01N 43°58' E 008°52'815.7
2017-Jun-20 01:31N 44°06' E 008°54'815.5
2017-Jun-20 01:01N 44°14' E 008°56'815.6
2017-Jun-20 00:31N 44°21' E 008°57'4 7.9
2017-Jun-20 00:00N 44°24' E 008°53'0 0.3
2017-Jun-19 23:28N 44°24' E 008°53'0 0.0
2017-Jun-19 22:58N 44°24' E 008°53'0 0.0
2017-Jun-19 22:28N 44°24' E 008°53'0 0.0
2017-Jun-19 21:58N 44°24' E 008°53'0 0.0
2017-Jun-19 21:28N 44°24' E 008°53'0 0.0
2017-Jun-19 20:58N 44°24' E 008°53'1 3.0
2017-Jun-19 20:30N 44°24' E 008°55'3 6.1
2017-Jun-19 20:00N 44°22' E 008°58'3 5.5
2017-Jun-19 19:30N 44°19' E 008°59'3 6.7
2017-Jun-19 19:00N 44°17' E 008°56'0 0.1
2017-Jun-19 18:30N 44°17' E 008°56'0 0.1
2017-Jun-19 18:00N 44°17' E 008°55'0 0.1
2017-Jun-19 17:30N 44°17' E 008°55'0 0.0
2017-Jun-19 17:00N 44°17' E 008°55'0 0.8
2017-Jun-19 16:30N 44°17' E 008°55'4 8.7
2017-Jun-19 16:01N 44°21' E 008°57'4 7.4
2017-Jun-19 15:30N 44°24' E 008°54'1 1.5
2017-Jun-19 14:59N 44°24' E 008°53'0 0.0
2017-Jun-19 13:56N 44°24' E 008°53'0 0.0
2017-Jun-19 13:26N 44°24' E 008°53'0 0.0
2017-Jun-19 12:50N 44°24' E 008°53'0 0.0
2017-Jun-19 12:23N 44°24' E 008°53'0 0.4
2017-Jun-19 12:00N 44°24' E 008°53'2 4.4
2017-Jun-19 11:30N 44°24' E 008°56'4 7.7
2017-Jun-19 11:00N 44°21' E 008°60'1 2.0
2017-Jun-19 10:30N 44°20' E 008°59'4 8.2
2017-Jun-19 10:00N 44°16' E 009°01'714.1
2017-Jun-19 09:31N 44°09' E 009°04'815.1
2017-Jun-19 09:01N 44°02' E 009°08'815.3
2017-Jun-19 08:30N 43°55' E 009°12'815.8
2017-Jun-19 08:00N 43°48' E 009°16'816.2
2017-Jun-19 07:30N 43°40' E 009°19'816.3
2017-Jun-19 07:01N 43°32' E 009°23'816.3
2017-Jun-19 06:31N 43°25' E 009°27'816.3
2017-Jun-19 06:00N 43°17' E 009°31'816.2
2017-Jun-19 05:31N 43°09' E 009°34'25015.4
2017-Jun-18 13:14N 38°59' E 009°33'514.2
2017-Jun-18 12:55N 39°01' E 009°27'615.0
2017-Jun-18 12:30N 39°04' E 009°20'815.1
2017-Jun-18 12:00N 39°08' E 009°12'611.9
2017-Jun-18 11:29N 39°12' E 009°07'1 1.3
2017-Jun-18 10:58N 39°13' E 009°06'0 0.0
2017-Jun-18 10:28N 39°13' E 009°06'0 0.0
2017-Jun-18 09:58N 39°13' E 009°06'0 0.0
2017-Jun-18 09:28N 39°13' E 009°06'0 0.0
2017-Jun-18 08:58N 39°13' E 009°06'0 0.0
2017-Jun-18 08:28N 39°13' E 009°06'0 0.0
2017-Jun-18 07:58N 39°13' E 009°06'0 0.0
2017-Jun-18 07:28N 39°13' E 009°06'0 0.0
2017-Jun-18 06:58N 39°13' E 009°06'0 0.0
2017-Jun-18 06:28N 39°13' E 009°06'0 0.0
2017-Jun-18 05:58N 39°13' E 009°06'0 0.0
2017-Jun-18 05:28N 39°13' E 009°06'0 0.0
2017-Jun-18 04:58N 39°13' E 009°06'0 0.0
2017-Jun-18 04:28N 39°13' E 009°06'0 0.3
2017-Jun-18 03:58N 39°13' E 009°06'2 4.9
2017-Jun-18 03:30N 39°10' E 009°07'714.4
2017-Jun-18 03:00N 39°03' E 009°09'714.7
2017-Jun-18 02:30N 38°58' E 009°03'815.3
2017-Jun-18 02:00N 38°52' E 008°56'14012.7
2017-Jun-17 14:59N 41°09' E 008°15'712.7
2017-Jun-17 14:27N 41°08' E 008°24'122 9.6
2017-Jun-17 01:44N 43°10' E 008°38'415.7
2017-Jun-17 01:29N 43°14' E 008°39'715.7
2017-Jun-17 01:00N 43°21' E 008°41'815.6
2017-Jun-17 00:30N 43°29' E 008°43'815.4
2017-Jun-17 00:00N 43°36' E 008°46'815.3
2017-Jun-16 23:30N 43°44' E 008°49'815.3
2017-Jun-16 23:00N 43°51' E 008°51'815.5
2017-Jun-16 22:30N 43°59' E 008°52'815.7
2017-Jun-16 22:00N 44°06' E 008°54'815.7
2017-Jun-16 21:30N 44°14' E 008°56'815.4
2017-Jun-16 21:00N 44°22' E 008°57'4 7.3
2017-Jun-16 20:30N 44°24' E 008°53'0 0.2
2017-Jun-16 19:57N 44°24' E 008°53'0 0.0
2017-Jun-16 19:27N 44°24' E 008°53'0 0.0
2017-Jun-16 19:00N 44°24' E 008°53'0 0.0
2017-Jun-16 18:27N 44°24' E 008°53'0 0.0
2017-Jun-16 17:57N 44°24' E 008°53'0 0.0
2017-Jun-16 17:27N 44°24' E 008°53'0 0.0
2017-Jun-16 16:57N 44°24' E 008°53'0 0.0
2017-Jun-16 16:27N 44°24' E 008°53'0 0.0
2017-Jun-16 16:00N 44°24' E 008°53'0 0.0
2017-Jun-16 15:30N 44°24' E 008°53'0 0.0
2017-Jun-16 15:00N 44°24' E 008°53'0 0.0
2017-Jun-16 14:30N 44°24' E 008°53'0 0.0
2017-Jun-16 13:30N 44°24' E 008°53'0 0.0
2017-Jun-16 13:00N 44°24' E 008°53'0 0.0
2017-Jun-16 12:30N 44°24' E 008°53'0 0.0
2017-Jun-16 12:00N 44°24' E 008°53'0 0.0
2017-Jun-16 11:30N 44°24' E 008°53'0 0.0
2017-Jun-16 11:00N 44°24' E 008°53'0 0.0
2017-Jun-16 10:30N 44°24' E 008°53'0 0.0
2017-Jun-16 10:00N 44°24' E 008°53'0 0.0
2017-Jun-16 09:30N 44°24' E 008°53'0 0.0
2017-Jun-16 08:54N 44°24' E 008°53'0 0.3
2017-Jun-16 08:30N 44°24' E 008°53'3 5.0
2017-Jun-16 08:00N 44°23' E 008°57'5 9.5
2017-Jun-16 07:30N 44°19' E 008°59'714.3
2017-Jun-16 07:00N 44°12' E 008°57'714.3
2017-Jun-16 06:30N 44°05' E 008°55'714.3
2017-Jun-16 06:00N 43°58' E 008°53'714.8
2017-Jun-16 05:30N 43°50' E 008°51'815.4
2017-Jun-16 05:00N 43°43' E 008°49'815.4
2017-Jun-16 04:30N 43°36' E 008°46'815.3
2017-Jun-16 04:00N 43°28' E 008°44'6715.7
2017-Jun-15 23:45N 42°22' E 008°26'516.0
2017-Jun-15 23:25N 42°17' E 008°26'1015.9
2017-Jun-15 22:48N 42°07' E 008°26'715.8
2017-Jun-15 22:23N 42°01' E 008°26'715.9
2017-Jun-15 21:58N 41°54' E 008°27'915.8
2017-Jun-15 21:24N 41°45' E 008°27'615.7
2017-Jun-15 21:00N 41°39' E 008°27'815.7
2017-Jun-15 20:30N 41°31' E 008°27'915.4
2017-Jun-15 19:55N 41°22' E 008°27'715.2
2017-Jun-15 19:27N 41°15' E 008°27'715.1
2017-Jun-15 18:59N 41°08' E 008°27'815.2
2017-Jun-15 18:28N 41°00' E 008°26'715.2
2017-Jun-15 18:00N 40°53' E 008°25'2 0.2
2017-Jun-15 07:36N 40°51' E 008°23'1 8.2
2017-Jun-15 07:30N 40°52' E 008°24'914.8
2017-Jun-15 06:53N 41°01' E 008°26'615.8
2017-Jun-15 06:30N 41°07' E 008°28'816.0
2017-Jun-15 05:59N 41°15' E 008°27'915.8
2017-Jun-15 05:26N 41°24' E 008°27'715.5
2017-Jun-15 04:58N 41°31' E 008°27'715.4
2017-Jun-15 04:29N 41°38' E 008°27'815.4
2017-Jun-15 03:59N 41°46' E 008°26'815.4
2017-Jun-15 03:29N 41°54' E 008°26'1315.5
2017-Jun-15 02:37N 42°07' E 008°26'215.5
2017-Jun-15 02:30N 42°09' E 008°26'815.4
2017-Jun-15 02:00N 42°16' E 008°26'815.4
2017-Jun-15 01:30N 42°24' E 008°26'1215.3
2017-Jun-15 00:41N 42°37' E 008°26'315.2
2017-Jun-15 00:29N 42°40' E 008°26'715.5
2017-Jun-15 00:00N 42°47' E 008°27'815.5
2017-Jun-14 23:30N 42°55' E 008°27'3815.8
2017-Jun-14 21:04N 43°33' E 008°29'815.5
2017-Jun-14 20:34N 43°41' E 008°29'215.5
2017-Jun-14 20:27N 43°43' E 008°29'715.6
2017-Jun-14 20:00N 43°50' E 008°29'915.7
2017-Jun-14 19:28N 43°58' E 008°30'715.8
2017-Jun-14 19:00N 44°05' E 008°31'815.7
2017-Jun-14 18:30N 44°13' E 008°31'611.1
2017-Jun-14 18:00N 44°19' E 008°30'0 0.6
2017-Jun-14 17:30N 44°19' E 008°29'0 0.0
2017-Jun-14 17:00N 44°19' E 008°29'0 0.0
2017-Jun-14 16:30N 44°19' E 008°29'0 0.0
2017-Jun-14 16:00N 44°19' E 008°29'0 0.0
2017-Jun-14 15:30N 44°19' E 008°29'0 0.0
2017-Jun-14 15:00N 44°19' E 008°29'0 0.0
2017-Jun-14 14:00N 44°19' E 008°29'0 0.0
2017-Jun-14 13:30N 44°19' E 008°29'0 0.0
2017-Jun-14 13:00N 44°19' E 008°29'0 0.0
2017-Jun-14 12:30N 44°19' E 008°29'0 0.0
2017-Jun-14 12:00N 44°19' E 008°29'0 0.0
2017-Jun-14 11:30N 44°19' E 008°29'0 0.0
2017-Jun-14 11:00N 44°19' E 008°29'0 0.0
2017-Jun-14 10:30N 44°19' E 008°29'0 0.0
2017-Jun-14 10:00N 44°19' E 008°29'0 0.0
2017-Jun-14 09:30N 44°19' E 008°29'0 0.0
2017-Jun-14 09:00N 44°19' E 008°29'0 0.0
2017-Jun-14 08:24N 44°19' E 008°29'0 0.1
2017-Jun-14 08:00N 44°19' E 008°29'1 2.5
2017-Jun-14 07:30N 44°18' E 008°31'714.3
2017-Jun-14 07:00N 44°11' E 008°31'815.7
2017-Jun-14 06:30N 44°03' E 008°31'815.6
2017-Jun-14 06:00N 43°55' E 008°30'815.6
2017-Jun-14 05:30N 43°48' E 008°30'815.7
2017-Jun-14 05:00N 43°40' E 008°29'815.7
2017-Jun-14 04:30N 43°32' E 008°29'815.6
2017-Jun-14 04:00N 43°24' E 008°28'815.5
2017-Jun-14 03:28N 43°16' E 008°28'715.4
2017-Jun-14 02:59N 43°08' E 008°28'1715.7
2017-Jun-14 01:53N 42°51' E 008°26'815.8
2017-Jun-14 01:24N 42°43' E 008°26'616.1
2017-Jun-14 01:00N 42°37' E 008°25'816.2
2017-Jun-14 00:30N 42°29' E 008°25'915.8
2017-Jun-13 23:55N 42°20' E 008°27'815.9
2017-Jun-13 23:27N 42°12' E 008°27'815.6
2017-Jun-13 22:57N 42°04' E 008°27'715.6
2017-Jun-13 22:30N 41°57' E 008°27'815.8
2017-Jun-13 21:59N 41°49' E 008°27'815.9
2017-Jun-13 21:30N 41°42' E 008°27'816.0
2017-Jun-13 21:00N 41°34' E 008°27'916.1
2017-Jun-13 20:26N 41°24' E 008°27'715.7
2017-Jun-13 20:01N 41°18' E 008°27'815.6
2017-Jun-13 19:30N 41°10' E 008°27'815.5
2017-Jun-13 19:00N 41°02' E 008°26'  

Dump ship's entire track history